createdAt,value
2022-12-12T00:10:00.687Z,14.90
2022-12-12T00:15:36.643Z,13.00
2022-12-12T00:21:40.141Z,13.00
2022-12-12T00:27:11.680Z,12.05
2022-12-12T00:35:09.353Z,12.85
2022-12-12T00:46:23.334Z,12.55
2022-12-12T00:49:11.820Z,12.82
2022-12-12T01:06:08.294Z,11.75
2022-12-12T01:11:23.991Z,12.23
2022-12-12T01:19:40.511Z,11.75
2022-12-12T01:22:12.633Z,12.50
2022-12-12T01:24:42.813Z,13.30
2022-12-12T01:37:58.925Z,13.10
2022-12-12T01:40:45.735Z,13.48
2022-12-12T01:46:34.850Z,12.57
2022-12-12T01:49:29.876Z,12.20
2022-12-12T02:00:41.246Z,13.80
2022-12-12T02:03:10.649Z,11.40
2022-12-12T02:06:00.331Z,11.00
2022-12-12T02:08:29.062Z,11.20
2022-12-12T02:13:46.666Z,10.95
2022-12-12T02:16:48.822Z,11.68
2022-12-12T02:22:39.958Z,11.02
2022-12-12T02:25:41.523Z,12.57
2022-12-12T02:28:24.519Z,10.80
2022-12-12T02:31:25.986Z,11.45
2022-12-12T02:34:29.562Z,10.85
2022-12-12T02:37:30.060Z,11.60
2022-12-12T02:40:34.974Z,10.80
2022-12-12T02:43:24.851Z,11.25
2022-12-12T02:46:12.570Z,10.65
2022-12-12T02:48:50.342Z,10.15
2022-12-12T02:51:19.999Z,10.68
2022-12-12T02:53:48.272Z,10.85
2022-12-12T02:56:49.163Z,11.27
2022-12-12T02:59:32.834Z,10.85
2022-12-12T03:02:32.554Z,10.07
2022-12-12T03:11:07.480Z,9.73
2022-12-12T03:13:59.285Z,11.93
2022-12-12T03:19:24.004Z,12.85
2022-12-12T03:22:12.656Z,11.85
2022-12-12T03:25:03.588Z,11.15
2022-12-12T03:28:20.407Z,11.00
2022-12-12T03:33:40.488Z,11.38
2022-12-12T03:36:41.199Z,13.80
2022-12-12T03:39:41.120Z,11.43
2022-12-12T03:42:32.990Z,11.88
2022-12-12T03:45:16.302Z,11.07
2022-12-12T03:48:01.186Z,10.57
2022-12-12T03:50:45.201Z,10.85
2022-12-12T03:53:17.994Z,11.05
2022-12-12T03:56:07.745Z,11.65
2022-12-12T03:59:03.662Z,9.45
2022-12-12T04:02:22.143Z,10.70
2022-12-12T04:05:01.047Z,10.65
2022-12-12T04:07:38.274Z,11.05
2022-12-12T04:10:25.983Z,10.85
2022-12-12T04:13:14.641Z,11.43
2022-12-12T04:16:03.190Z,11.40
2022-12-12T04:18:56.368Z,11.27
2022-12-12T04:22:00.407Z,12.55
2022-12-12T04:24:46.859Z,13.10
2022-12-12T04:27:30.051Z,13.00
2022-12-12T04:30:13.133Z,12.38
2022-12-12T04:32:51.185Z,12.45
2022-12-12T04:35:34.864Z,11.70
2022-12-12T04:38:10.399Z,11.33
2022-12-12T04:40:52.369Z,11.30
2022-12-12T04:43:34.845Z,10.73
2022-12-12T04:46:17.368Z,11.88
2022-12-12T04:48:53.956Z,15.07
2022-12-12T04:51:33.913Z,13.90
2022-12-12T04:54:25.394Z,11.48
2022-12-12T04:56:59.088Z,12.82
2022-12-12T04:59:27.235Z,12.27
2022-12-12T05:02:00.464Z,11.90
2022-12-12T05:04:42.037Z,11.25
2022-12-12T05:07:18.060Z,12.60
2022-12-12T05:09:45.580Z,12.35
2022-12-12T05:12:14.872Z,11.48
2022-12-12T05:14:42.207Z,11.80
2022-12-12T05:17:16.985Z,18.30
2022-12-12T05:19:44.185Z,12.40
2022-12-12T05:22:11.857Z,13.77
2022-12-12T05:31:31.544Z,12.95
2022-12-12T05:34:19.447Z,13.02
2022-12-12T05:37:05.356Z,13.43
2022-12-12T05:39:39.807Z,12.77
2022-12-12T05:44:59.194Z,13.15
2022-12-12T05:47:27.773Z,11.63
2022-12-12T05:49:57.878Z,12.98
2022-12-12T05:52:29.730Z,12.32
2022-12-12T05:55:02.374Z,12.35
2022-12-12T05:58:41.200Z,13.85
2022-12-12T06:01:17.978Z,12.48
2022-12-12T06:06:52.048Z,13.30
2022-12-12T06:09:26.267Z,12.90
2022-12-12T06:11:57.018Z,13.35
2022-12-12T06:14:41.116Z,14.10
2022-12-12T06:20:00.127Z,13.05
2022-12-12T06:25:14.477Z,12.65
2022-12-12T06:27:46.871Z,12.48
2022-12-12T06:30:26.938Z,12.68
2022-12-12T06:32:55.698Z,12.85
2022-12-12T06:35:23.456Z,13.90
2022-12-12T06:37:52.339Z,13.02
2022-12-12T06:40:20.883Z,12.88
2022-12-12T06:48:13.134Z,14.48
2022-12-12T06:50:42.394Z,13.43
2022-12-12T06:55:57.192Z,12.65
2022-12-12T07:04:19.561Z,13.65
2022-12-12T07:09:47.145Z,12.77
2022-12-12T07:14:55.180Z,13.05
2022-12-12T07:33:59.336Z,13.35
2022-12-12T08:12:58.813Z,13.07
2022-12-12T08:15:27.483Z,13.32
2022-12-12T08:18:02.645Z,13.57
2022-12-12T08:36:58.537Z,15.02
2022-12-12T08:45:08.489Z,18.65
2022-12-12T08:47:40.876Z,18.70
2022-12-12T08:50:15.696Z,18.08
2022-12-12T08:55:33.898Z,14.95
2022-12-12T08:58:01.164Z,13.70
2022-12-12T09:00:42.558Z,15.98
2022-12-12T09:03:10.948Z,17.30
2022-12-12T09:05:51.583Z,16.27
2022-12-12T09:08:21.387Z,13.60
2022-12-12T09:10:55.436Z,14.55
2022-12-12T09:13:23.066Z,13.93
2022-12-12T09:15:57.270Z,14.65
2022-12-12T09:18:28.451Z,13.85
2022-12-12T09:20:59.327Z,14.60
2022-12-12T09:26:10.751Z,13.93
2022-12-12T09:28:42.145Z,14.02
2022-12-12T09:31:14.766Z,13.02
2022-12-12T09:43:01.438Z,14.77
2022-12-12T10:21:38.942Z,12.90
2022-12-12T10:24:21.329Z,14.00
2022-12-12T10:26:56.576Z,13.40
2022-12-12T10:29:39.665Z,13.43
2022-12-12T10:32:34.645Z,14.38
2022-12-12T10:35:26.131Z,14.55
2022-12-12T10:38:35.090Z,14.82
2022-12-12T10:41:16.543Z,13.85
2022-12-12T11:13:16.120Z,14.80
2022-12-12T11:16:24.769Z,14.38
2022-12-12T11:19:24.237Z,13.73
2022-12-12T11:24:53.771Z,13.88
2022-12-12T11:33:32.638Z,13.45
2022-12-12T11:36:09.057Z,15.05
2022-12-12T11:38:55.523Z,14.65
2022-12-12T11:41:25.260Z,13.30
2022-12-12T12:01:29.533Z,13.80
2022-12-12T12:04:28.279Z,14.98
2022-12-12T12:10:43.499Z,13.07
2022-12-12T12:13:39.566Z,13.20
2022-12-12T12:16:22.227Z,12.75
2022-12-12T12:19:42.793Z,13.23
2022-12-12T12:22:50.410Z,12.85
2022-12-12T12:25:44.479Z,13.32
2022-12-12T12:39:03.762Z,13.77
2022-12-12T12:41:45.897Z,14.15
2022-12-12T12:44:51.059Z,13.07
2022-12-12T12:48:10.580Z,13.43
2022-12-12T12:50:57.119Z,13.60
2022-12-12T12:56:26.335Z,13.35
2022-12-12T13:01:41.477Z,13.50
2022-12-12T13:06:45.246Z,13.02
2022-12-12T13:12:22.683Z,15.93
2022-12-12T13:15:30.956Z,14.32
2022-12-12T13:21:33.971Z,13.10
2022-12-12T13:24:20.883Z,17.52
2022-12-12T13:27:17.447Z,14.57
2022-12-12T13:30:21.927Z,13.48
2022-12-12T13:41:15.244Z,14.13
2022-12-12T13:43:57.432Z,13.40
2022-12-12T13:46:28.135Z,13.55
2022-12-12T13:49:07.645Z,13.43
2022-12-12T13:51:44.855Z,12.18
2022-12-12T13:54:14.119Z,12.63
2022-12-12T13:56:53.944Z,12.68
2022-12-12T13:59:33.666Z,12.30
2022-12-12T14:02:35.017Z,13.43
2022-12-12T14:05:38.042Z,13.48
2022-12-12T14:08:12.690Z,13.25
2022-12-12T14:18:59.930Z,14.18
2022-12-12T14:44:36.963Z,16.52
2022-12-12T14:47:11.442Z,13.88
2022-12-12T14:49:50.074Z,16.58
2022-12-12T14:52:31.748Z,13.93
2022-12-12T14:55:02.117Z,13.45
2022-12-12T14:57:32.865Z,15.05
2022-12-12T15:00:03.451Z,13.40
2022-12-12T15:02:42.075Z,15.27
2022-12-12T15:05:13.533Z,13.65
2022-12-12T15:07:42.040Z,14.18
2022-12-12T15:10:31.002Z,13.55
2022-12-12T15:13:02.707Z,12.63
2022-12-12T15:15:34.554Z,13.23
2022-12-12T15:18:03.402Z,12.88
2022-12-12T15:20:33.694Z,13.35
2022-12-12T15:23:07.693Z,13.43
2022-12-12T15:25:55.146Z,14.30
2022-12-12T15:28:25.257Z,14.27
2022-12-12T15:30:56.149Z,14.13
2022-12-12T15:33:26.808Z,16.92
2022-12-12T15:36:02.987Z,14.95
2022-12-12T15:38:32.500Z,14.48
2022-12-12T15:41:09.558Z,16.73
2022-12-12T15:43:40.856Z,14.52
2022-12-12T15:46:16.297Z,13.25
2022-12-12T15:48:49.998Z,13.32
2022-12-12T15:51:24.710Z,12.70
2022-12-12T15:53:55.581Z,14.02
2022-12-12T15:56:28.011Z,14.10
2022-12-12T15:59:04.136Z,13.15
2022-12-12T16:01:32.063Z,13.82
2022-12-12T16:04:10.470Z,12.95
2022-12-12T16:06:43.387Z,12.32
2022-12-12T16:09:10.616Z,12.60
2022-12-12T16:11:58.949Z,12.43
2022-12-12T16:14:43.611Z,12.23
2022-12-12T16:20:04.945Z,12.50
2022-12-12T16:22:42.682Z,12.18
2022-12-12T16:25:27.549Z,13.10
2022-12-12T16:28:10.135Z,12.82
2022-12-12T16:30:43.156Z,12.25
2022-12-12T16:33:34.327Z,12.60
2022-12-12T16:36:06.081Z,12.50
2022-12-12T16:38:34.186Z,12.13
2022-12-12T16:41:10.863Z,11.40
2022-12-12T16:43:40.179Z,13.52
2022-12-12T16:46:21.808Z,12.65
2022-12-12T16:48:50.697Z,12.13
2022-12-12T16:51:31.349Z,12.50
2022-12-12T16:54:00.143Z,12.70
2022-12-12T16:56:29.453Z,12.65
2022-12-12T16:58:58.028Z,12.45
2022-12-12T17:01:26.067Z,12.10
2022-12-12T17:03:56.209Z,12.50
2022-12-12T17:09:00.491Z,11.73
2022-12-12T17:11:34.209Z,12.50
2022-12-12T17:14:08.869Z,13.80
2022-12-12T17:16:39.184Z,12.70
2022-12-12T17:19:08.860Z,13.02
2022-12-12T17:21:37.824Z,12.60
2022-12-12T17:24:05.892Z,12.63
2022-12-12T17:26:34.072Z,12.43
2022-12-12T17:29:03.052Z,12.65
2022-12-12T17:31:31.014Z,12.88
2022-12-12T17:34:00.631Z,12.52
2022-12-12T17:36:28.534Z,13.30
2022-12-12T17:38:58.982Z,13.30
2022-12-12T17:44:12.381Z,12.05
2022-12-12T17:46:41.686Z,14.68
2022-12-12T17:49:09.332Z,15.40
2022-12-12T17:51:38.805Z,12.15
2022-12-12T17:54:07.288Z,11.93
2022-12-12T17:56:36.276Z,12.95
2022-12-12T17:59:06.245Z,13.70
2022-12-12T18:01:34.361Z,13.00
2022-12-12T18:04:04.845Z,12.75
2022-12-12T18:06:35.394Z,13.32
2022-12-12T18:09:05.295Z,20.83
2022-12-12T18:11:36.963Z,14.23
2022-12-12T18:14:09.349Z,14.73
2022-12-12T18:16:38.225Z,13.25
2022-12-12T18:19:05.664Z,13.02
2022-12-12T18:24:24.867Z,13.23
2022-12-12T18:26:59.299Z,13.43
2022-12-12T18:29:29.358Z,12.73
2022-12-12T18:31:58.774Z,13.05
2022-12-12T18:34:27.311Z,14.63
2022-12-12T18:36:57.703Z,12.38
2022-12-12T18:39:26.762Z,12.73
2022-12-12T18:41:54.122Z,13.88
2022-12-12T18:44:22.842Z,14.73
2022-12-12T18:46:52.531Z,14.15
2022-12-12T18:49:20.571Z,14.13
2022-12-12T18:51:50.743Z,13.60
2022-12-12T18:54:19.383Z,12.65
2022-12-12T18:56:48.607Z,14.63
2022-12-12T18:59:19.386Z,13.75
2022-12-12T19:01:50.875Z,11.82
2022-12-12T19:04:23.413Z,11.60
2022-12-12T19:06:53.092Z,11.95
2022-12-12T19:09:21.932Z,11.75
2022-12-12T19:11:50.465Z,12.65
2022-12-12T19:14:18.446Z,12.23
2022-12-12T19:16:47.241Z,14.48
2022-12-12T19:19:16.005Z,12.88
2022-12-12T19:21:44.768Z,12.48
2022-12-12T19:24:12.796Z,13.00
2022-12-12T19:26:44.013Z,12.20
2022-12-12T19:29:16.640Z,13.18
2022-12-12T19:31:45.114Z,13.25
2022-12-12T19:34:14.678Z,14.48
2022-12-12T19:36:43.882Z,14.45
2022-12-12T19:39:12.996Z,13.60
2022-12-12T19:41:41.099Z,13.68
2022-12-12T19:44:14.500Z,13.85
2022-12-12T19:46:46.440Z,14.27
2022-12-12T19:49:17.074Z,14.75
2022-12-12T19:51:47.087Z,13.52
2022-12-12T19:54:20.152Z,14.45
2022-12-12T19:56:52.284Z,13.65
2022-12-12T19:59:21.192Z,14.68
2022-12-12T20:01:49.425Z,16.98
2022-12-12T20:04:23.652Z,16.08
2022-12-12T20:06:53.208Z,15.77
2022-12-12T20:14:43.130Z,14.32
2022-12-12T20:17:11.247Z,12.88
2022-12-12T20:19:39.312Z,14.55
2022-12-12T20:22:11.342Z,14.80
2022-12-12T20:24:42.554Z,12.80
2022-12-12T20:27:12.460Z,15.02
2022-12-12T20:29:40.370Z,13.68
2022-12-12T20:32:08.708Z,13.32
2022-12-12T20:37:21.833Z,13.27
2022-12-12T20:39:49.834Z,13.45
2022-12-12T20:42:17.350Z,14.18
2022-12-12T20:44:44.919Z,14.73
2022-12-12T20:47:17.205Z,15.48
2022-12-12T20:49:44.701Z,16.08
2022-12-12T20:52:12.336Z,17.77
2022-12-12T20:54:39.780Z,16.58
2022-12-12T20:57:07.635Z,15.93
2022-12-12T20:59:35.249Z,18.05
2022-12-12T21:02:02.885Z,18.15
2022-12-12T21:04:32.085Z,16.88
2022-12-12T21:07:00.731Z,17.20
2022-12-12T21:09:28.760Z,17.50
2022-12-12T21:11:58.672Z,20.33
2022-12-12T21:14:28.681Z,22.27
2022-12-12T21:16:56.598Z,17.58
2022-12-12T21:19:24.591Z,17.70
2022-12-12T21:21:52.515Z,19.30
2022-12-12T21:24:20.915Z,19.42
2022-12-12T21:26:49.357Z,17.65
2022-12-12T21:29:17.342Z,17.17
2022-12-12T21:31:51.065Z,18.58
2022-12-12T21:34:21.661Z,16.08
2022-12-12T21:36:54.781Z,15.57
2022-12-12T21:39:28.883Z,15.90
2022-12-12T21:41:57.147Z,16.27
2022-12-12T21:44:25.875Z,15.32
2022-12-12T21:46:54.597Z,17.17
2022-12-12T21:49:32.005Z,15.18
2022-12-12T21:52:02.837Z,14.50
2022-12-12T21:54:32.419Z,14.82
2022-12-12T21:57:01.974Z,15.18
2022-12-12T21:59:30.278Z,15.63
2022-12-12T22:02:00.776Z,15.02
2022-12-12T22:04:32.257Z,14.52
2022-12-12T22:07:01.771Z,14.98
2022-12-12T22:09:31.158Z,15.85
2022-12-12T22:12:03.582Z,14.18
2022-12-12T22:14:33.715Z,14.40
2022-12-12T22:17:03.251Z,13.93
2022-12-12T22:19:32.617Z,14.40
2022-12-12T22:22:01.303Z,14.73
2022-12-12T22:24:30.149Z,16.23
2022-12-12T22:27:00.457Z,14.07
2022-12-12T22:29:28.810Z,14.73
2022-12-12T22:31:57.133Z,15.00
2022-12-12T22:34:26.818Z,15.38
2022-12-12T22:36:55.467Z,15.77
2022-12-12T22:39:27.743Z,15.50
2022-12-12T22:41:57.690Z,16.48
2022-12-12T22:44:27.390Z,14.32
2022-12-12T22:46:56.938Z,15.52
2022-12-12T22:49:27.535Z,14.32
2022-12-12T22:54:43.193Z,15.40
2022-12-12T22:57:15.142Z,14.50
2022-12-12T22:59:45.139Z,14.70
2022-12-12T23:02:23.136Z,15.20
2022-12-12T23:04:54.636Z,14.00
2022-12-12T23:10:05.206Z,13.68
2022-12-12T23:12:34.414Z,14.30
2022-12-12T23:15:01.962Z,13.45
2022-12-12T23:17:29.995Z,14.00
2022-12-12T23:19:57.860Z,14.18
2022-12-12T23:22:26.292Z,14.70
2022-12-12T23:24:55.249Z,13.18
2022-12-12T23:27:23.321Z,13.50
2022-12-12T23:29:52.107Z,12.85
2022-12-12T23:32:20.800Z,13.95
2022-12-12T23:34:49.173Z,14.32
2022-12-12T23:37:20.511Z,15.88
2022-12-12T23:39:52.364Z,14.18
2022-12-12T23:42:20.698Z,13.20
2022-12-12T23:44:51.150Z,12.65
2022-12-12T23:47:20.155Z,13.13
2022-12-12T23:49:48.873Z,12.63
2022-12-12T23:52:17.992Z,11.73
2022-12-12T23:54:55.153Z,12.70
2022-12-12T23:57:24.337Z,12.48
2022-12-12T23:59:53.466Z,11.88
